sensor_id;sensor_type;location;lat;lon;timestamp;P1;durP1;ratioP1;P2;durP2;ratioP2
14125;SDS011;7141;49.484;11.242;2023-12-20T00:01:29;6.10;;;5.00;;
14125;SDS011;7141;49.484;11.242;2023-12-20T00:03:55;7.57;;;5.03;;
14125;SDS011;7141;49.484;11.242;2023-12-20T00:06:21;7.17;;;5.00;;
14125;SDS011;7141;49.484;11.242;2023-12-20T00:08:47;7.87;;;4.43;;
14125;SDS011;7141;49.484;11.242;2023-12-20T00:11:13;7.80;;;5.43;;
14125;SDS011;7141;49.484;11.242;2023-12-20T00:13:39;9.13;;;5.40;;
14125;SDS011;7141;49.484;11.242;2023-12-20T00:16:05;5.83;;;5.10;;
14125;SDS011;7141;49.484;11.242;2023-12-20T00:18:31;8.97;;;5.70;;
14125;SDS011;7141;49.484;11.242;2023-12-20T00:20:57;8.67;;;5.93;;
14125;SDS011;7141;49.484;11.242;2023-12-20T00:23:23;8.17;;;5.83;;
14125;SDS011;7141;49.484;11.242;2023-12-20T00:25:49;6.77;;;5.23;;
14125;SDS011;7141;49.484;11.242;2023-12-20T00:28:15;8.37;;;6.60;;
14125;SDS011;7141;49.484;11.242;2023-12-20T00:30:41;10.17;;;6.13;;
14125;SDS011;7141;49.484;11.242;2023-12-20T00:33:07;8.63;;;5.90;;
14125;SDS011;7141;49.484;11.242;2023-12-20T00:35:33;9.20;;;6.63;;
14125;SDS011;7141;49.484;11.242;2023-12-20T00:37:59;8.30;;;6.03;;
14125;SDS011;7141;49.484;11.242;2023-12-20T00:40:25;8.40;;;5.70;;
14125;SDS011;7141;49.484;11.242;2023-12-20T00:42:51;8.63;;;6.27;;
14125;SDS011;7141;49.484;11.242;2023-12-20T00:45:17;11.20;;;6.23;;
14125;SDS011;7141;49.484;11.242;2023-12-20T00:47:43;13.03;;;6.37;;
14125;SDS011;7141;49.484;11.242;2023-12-20T00:50:09;8.47;;;6.50;;
14125;SDS011;7141;49.484;11.242;2023-12-20T00:52:35;9.83;;;6.53;;
14125;SDS011;7141;49.484;11.242;2023-12-20T00:55:01;10.70;;;6.37;;
14125;SDS011;7141;49.484;11.242;2023-12-20T00:57:27;10.00;;;6.60;;
14125;SDS011;7141;49.484;11.242;2023-12-20T00:59:53;12.43;;;6.80;;
14125;SDS011;7141;49.484;11.242;2023-12-20T01:02:18;12.43;;;7.13;;
14125;SDS011;7141;49.484;11.242;2023-12-20T01:04:44;12.03;;;6.37;;
14125;SDS011;7141;49.484;11.242;2023-12-20T01:07:10;9.50;;;6.40;;
14125;SDS011;7141;49.484;11.242;2023-12-20T01:09:36;12.13;;;6.37;;
14125;SDS011;7141;49.484;11.242;2023-12-20T01:12:02;9.37;;;6.37;;
14125;SDS011;7141;49.484;11.242;2023-12-20T01:14:28;8.53;;;6.57;;
14125;SDS011;7141;49.484;11.242;2023-12-20T01:16:54;8.23;;;6.40;;
14125;SDS011;7141;49.484;11.242;2023-12-20T01:19:20;7.40;;;5.70;;
14125;SDS011;7141;49.484;11.242;2023-12-20T01:21:46;10.23;;;6.37;;
14125;SDS011;7141;49.484;11.242;2023-12-20T01:24:12;7.97;;;5.47;;
14125;SDS011;7141;49.484;11.242;2023-12-20T01:26:38;8.47;;;5.00;;
14125;SDS011;7141;49.484;11.242;2023-12-20T01:29:04;9.90;;;5.60;;
14125;SDS011;7141;49.484;11.242;2023-12-20T01:31:30;8.80;;;5.77;;
14125;SDS011;7141;49.484;11.242;2023-12-20T01:33:56;6.97;;;4.97;;
14125;SDS011;7141;49.484;11.242;2023-12-20T01:36:22;8.27;;;5.37;;
14125;SDS011;7141;49.484;11.242;2023-12-20T01:38:48;6.73;;;5.47;;
14125;SDS011;7141;49.484;11.242;2023-12-20T01:41:14;7.80;;;4.80;;
14125;SDS011;7141;49.484;11.242;2023-12-20T01:43:40;7.33;;;5.00;;
14125;SDS011;7141;49.484;11.242;2023-12-20T01:46:06;5.83;;;4.17;;
14125;SDS011;7141;49.484;11.242;2023-12-20T01:48:32;5.17;;;4.40;;
14125;SDS011;7141;49.484;11.242;2023-12-20T01:50:59;6.57;;;4.30;;
14125;SDS011;7141;49.484;11.242;2023-12-20T01:53:25;6.07;;;3.83;;
14125;SDS011;7141;49.484;11.242;2023-12-20T01:55:54;6.03;;;3.70;;
14125;SDS011;7141;49.484;11.242;2023-12-20T01:58:20;5.10;;;3.50;;
14125;SDS011;7141;49.484;11.242;2023-12-20T02:00:47;5.50;;;3.80;;
14125;SDS011;7141;49.484;11.242;2023-12-20T02:03:13;3.90;;;3.50;;
14125;SDS011;7141;49.484;11.242;2023-12-20T02:05:40;4.43;;;3.20;;
14125;SDS011;7141;49.484;11.242;2023-12-20T02:08:06;4.53;;;3.13;;
14125;SDS011;7141;49.484;11.242;2023-12-20T02:10:32;4.67;;;3.27;;
14125;SDS011;7141;49.484;11.242;2023-12-20T02:12:58;3.93;;;3.00;;
14125;SDS011;7141;49.484;11.242;2023-12-20T02:15:24;3.50;;;2.73;;
14125;SDS011;7141;49.484;11.242;2023-12-20T02:17:50;5.10;;;2.80;;
14125;SDS011;7141;49.484;11.242;2023-12-20T02:20:16;4.10;;;2.67;;
14125;SDS011;7141;49.484;11.242;2023-12-20T02:22:42;3.10;;;2.50;;
14125;SDS011;7141;49.484;11.242;2023-12-20T02:25:08;5.67;;;2.37;;
14125;SDS011;7141;49.484;11.242;2023-12-20T02:27:34;3.60;;;2.47;;
14125;SDS011;7141;49.484;11.242;2023-12-20T02:30:01;2.30;;;2.10;;
14125;SDS011;7141;49.484;11.242;2023-12-20T02:32:28;4.10;;;2.17;;
14125;SDS011;7141;49.484;11.242;2023-12-20T02:34:54;2.83;;;2.40;;
14125;SDS011;7141;49.484;11.242;2023-12-20T02:37:21;2.67;;;2.40;;
14125;SDS011;7141;49.484;11.242;2023-12-20T02:39:47;3.53;;;2.30;;
14125;SDS011;7141;49.484;11.242;2023-12-20T02:42:13;2.33;;;1.90;;
14125;SDS011;7141;49.484;11.242;2023-12-20T02:44:39;3.47;;;2.30;;
14125;SDS011;7141;49.484;11.242;2023-12-20T02:47:05;2.53;;;2.20;;
14125;SDS011;7141;49.484;11.242;2023-12-20T02:49:31;2.53;;;2.10;;
14125;SDS011;7141;49.484;11.242;2023-12-20T02:51:57;1.80;;;1.53;;
14125;SDS011;7141;49.484;11.242;2023-12-20T02:54:23;2.50;;;1.90;;
14125;SDS011;7141;49.484;11.242;2023-12-20T02:56:49;2.00;;;1.80;;
14125;SDS011;7141;49.484;11.242;2023-12-20T02:59:15;2.50;;;1.70;;
14125;SDS011;7141;49.484;11.242;2023-12-20T03:01:44;2.37;;;1.67;;
14125;SDS011;7141;49.484;11.242;2023-12-20T03:04:11;1.80;;;1.57;;
14125;SDS011;7141;49.484;11.242;2023-12-20T03:06:37;1.63;;;1.40;;
14125;SDS011;7141;49.484;11.242;2023-12-20T03:09:03;1.70;;;1.60;;
14125;SDS011;7141;49.484;11.242;2023-12-20T03:11:29;1.60;;;1.50;;
14125;SDS011;7141;49.484;11.242;2023-12-20T03:13:56;2.13;;;1.53;;
14125;SDS011;7141;49.484;11.242;2023-12-20T03:16:22;1.67;;;1.57;;
14125;SDS011;7141;49.484;11.242;2023-12-20T03:18:48;1.40;;;1.30;;
14125;SDS011;7141;49.484;11.242;2023-12-20T03:21:14;2.70;;;1.70;;
14125;SDS011;7141;49.484;11.242;2023-12-20T03:23:40;2.93;;;1.47;;
14125;SDS011;7141;49.484;11.242;2023-12-20T03:26:06;1.47;;;1.30;;
14125;SDS011;7141;49.484;11.242;2023-12-20T03:28:32;1.50;;;1.40;;
14125;SDS011;7141;49.484;11.242;2023-12-20T03:30:58;3.17;;;1.73;;
14125;SDS011;7141;49.484;11.242;2023-12-20T03:33:24;2.03;;;1.70;;
14125;SDS011;7141;49.484;11.242;2023-12-20T03:35:50;2.10;;;1.87;;
14125;SDS011;7141;49.484;11.242;2023-12-20T03:38:16;1.93;;;1.63;;
14125;SDS011;7141;49.484;11.242;2023-12-20T03:40:42;2.10;;;1.70;;
14125;SDS011;7141;49.484;11.242;2023-12-20T03:43:08;2.27;;;1.97;;
14125;SDS011;7141;49.484;11.242;2023-12-20T03:45:34;2.93;;;1.90;;
14125;SDS011;7141;49.484;11.242;2023-12-20T03:48:00;2.83;;;1.90;;
14125;SDS011;7141;49.484;11.242;2023-12-20T03:50:26;2.13;;;1.90;;
14125;SDS011;7141;49.484;11.242;2023-12-20T03:52:52;1.63;;;1.50;;
14125;SDS011;7141;49.484;11.242;2023-12-20T03:55:18;2.63;;;1.80;;
14125;SDS011;7141;49.484;11.242;2023-12-20T03:57:44;2.00;;;1.50;;
14125;SDS011;7141;49.484;11.242;2023-12-20T04:00:10;3.77;;;1.70;;
14125;SDS011;7141;49.484;11.242;2023-12-20T04:02:37;2.03;;;1.80;;
14125;SDS011;7141;49.484;11.242;2023-12-20T04:05:03;2.13;;;1.50;;
14125;SDS011;7141;49.484;11.242;2023-12-20T04:07:29;1.57;;;1.47;;
14125;SDS011;7141;49.484;11.242;2023-12-20T04:09:55;1.67;;;1.57;;
14125;SDS011;7141;49.484;11.242;2023-12-20T04:12:21;1.70;;;1.60;;
14125;SDS011;7141;49.484;11.242;2023-12-20T04:14:47;1.97;;;1.63;;
14125;SDS011;7141;49.484;11.242;2023-12-20T04:17:14;2.20;;;1.80;;
14125;SDS011;7141;49.484;11.242;2023-12-20T04:19:43;2.03;;;1.73;;
14125;SDS011;7141;49.484;11.242;2023-12-20T04:22:09;1.80;;;1.70;;
14125;SDS011;7141;49.484;11.242;2023-12-20T04:24:35;2.37;;;1.67;;
14125;SDS011;7141;49.484;11.242;2023-12-20T04:27:01;3.67;;;2.13;;
14125;SDS011;7141;49.484;11.242;2023-12-20T04:29:27;2.07;;;1.87;;
14125;SDS011;7141;49.484;11.242;2023-12-20T04:31:53;3.80;;;1.70;;
14125;SDS011;7141;49.484;11.242;2023-12-20T04:34:20;2.83;;;2.43;;
14125;SDS011;7141;49.484;11.242;2023-12-20T04:36:46;2.13;;;1.80;;
14125;SDS011;7141;49.484;11.242;2023-12-20T04:39:12;2.53;;;2.27;;
14125;SDS011;7141;49.484;11.242;2023-12-20T04:41:40;5.73;;;2.50;;
14125;SDS011;7141;49.484;11.242;2023-12-20T04:44:06;2.70;;;2.23;;
14125;SDS011;7141;49.484;11.242;2023-12-20T04:46:32;3.07;;;2.43;;
14125;SDS011;7141;49.484;11.242;2023-12-20T04:48:58;2.20;;;1.97;;
14125;SDS011;7141;49.484;11.242;2023-12-20T04:51:23;2.60;;;2.30;;
14125;SDS011;7141;49.484;11.242;2023-12-20T04:53:49;2.93;;;2.53;;
14125;SDS011;7141;49.484;11.242;2023-12-20T04:56:15;2.43;;;2.20;;
14125;SDS011;7141;49.484;11.242;2023-12-20T04:58:42;2.67;;;2.20;;
14125;SDS011;7141;49.484;11.242;2023-12-20T05:01:08;2.10;;;1.90;;
14125;SDS011;7141;49.484;11.242;2023-12-20T05:03:34;2.03;;;1.83;;
14125;SDS011;7141;49.484;11.242;2023-12-20T05:06:00;2.43;;;2.23;;
14125;SDS011;7141;49.484;11.242;2023-12-20T05:08:26;2.37;;;2.00;;
14125;SDS011;7141;49.484;11.242;2023-12-20T05:10:55;3.00;;;2.27;;
14125;SDS011;7141;49.484;11.242;2023-12-20T05:13:22;2.20;;;2.00;;
14125;SDS011;7141;49.484;11.242;2023-12-20T05:15:48;2.57;;;2.37;;
14125;SDS011;7141;49.484;11.242;2023-12-20T05:18:14;2.40;;;2.20;;
14125;SDS011;7141;49.484;11.242;2023-12-20T05:20:40;2.20;;;2.00;;
14125;SDS011;7141;49.484;11.242;2023-12-20T05:23:06;4.03;;;2.50;;
14125;SDS011;7141;49.484;11.242;2023-12-20T05:25:32;2.80;;;2.27;;
14125;SDS011;7141;49.484;11.242;2023-12-20T05:27:58;2.70;;;2.23;;
14125;SDS011;7141;49.484;11.242;2023-12-20T05:30:25;3.50;;;2.47;;
14125;SDS011;7141;49.484;11.242;2023-12-20T05:32:51;3.07;;;2.23;;
14125;SDS011;7141;49.484;11.242;2023-12-20T05:35:17;5.27;;;2.17;;
14125;SDS011;7141;49.484;11.242;2023-12-20T05:37:44;4.87;;;2.57;;
14125;SDS011;7141;49.484;11.242;2023-12-20T05:40:10;3.87;;;2.63;;
14125;SDS011;7141;49.484;11.242;2023-12-20T05:42:37;4.67;;;2.77;;
14125;SDS011;7141;49.484;11.242;2023-12-20T05:45:04;3.00;;;2.40;;
14125;SDS011;7141;49.484;11.242;2023-12-20T05:47:30;3.90;;;2.30;;
14125;SDS011;7141;49.484;11.242;2023-12-20T05:49:56;4.03;;;2.83;;
14125;SDS011;7141;49.484;11.242;2023-12-20T05:52:22;3.57;;;2.57;;
14125;SDS011;7141;49.484;11.242;2023-12-20T05:54:48;2.53;;;2.27;;
14125;SDS011;7141;49.484;11.242;2023-12-20T05:57:14;2.70;;;2.30;;
14125;SDS011;7141;49.484;11.242;2023-12-20T05:59:40;3.07;;;2.67;;
14125;SDS011;7141;49.484;11.242;2023-12-20T06:02:06;5.13;;;2.50;;
14125;SDS011;7141;49.484;11.242;2023-12-20T06:04:32;3.10;;;2.50;;
14125;SDS011;7141;49.484;11.242;2023-12-20T06:06:58;3.67;;;2.70;;
14125;SDS011;7141;49.484;11.242;2023-12-20T06:09:25;3.73;;;2.57;;
14125;SDS011;7141;49.484;11.242;2023-12-20T06:11:52;4.23;;;2.93;;
14125;SDS011;7141;49.484;11.242;2023-12-20T06:14:18;4.03;;;3.50;;
14125;SDS011;7141;49.484;11.242;2023-12-20T06:16:44;4.10;;;3.20;;
14125;SDS011;7141;49.484;11.242;2023-12-20T06:19:10;5.57;;;3.17;;
14125;SDS011;7141;49.484;11.242;2023-12-20T06:21:36;5.30;;;3.50;;
14125;SDS011;7141;49.484;11.242;2023-12-20T06:24:02;3.37;;;3.03;;
14125;SDS011;7141;49.484;11.242;2023-12-20T06:26:28;3.83;;;3.03;;
14125;SDS011;7141;49.484;11.242;2023-12-20T06:28:54;3.50;;;2.83;;
14125;SDS011;7141;49.484;11.242;2023-12-20T06:31:21;3.30;;;3.00;;
14125;SDS011;7141;49.484;11.242;2023-12-20T06:33:47;5.27;;;3.17;;
14125;SDS011;7141;49.484;11.242;2023-12-20T06:36:14;3.20;;;2.77;;
14125;SDS011;7141;49.484;11.242;2023-12-20T06:38:40;3.63;;;3.00;;
14125;SDS011;7141;49.484;11.242;2023-12-20T06:41:12;3.93;;;2.93;;
14125;SDS011;7141;49.484;11.242;2023-12-20T06:43:39;3.87;;;3.47;;
14125;SDS011;7141;49.484;11.242;2023-12-20T06:46:05;3.83;;;3.30;;
14125;SDS011;7141;49.484;11.242;2023-12-20T06:48:32;4.10;;;3.70;;
14125;SDS011;7141;49.484;11.242;2023-12-20T06:50:59;4.27;;;3.60;;
14125;SDS011;7141;49.484;11.242;2023-12-20T06:53:25;4.37;;;3.77;;
14125;SDS011;7141;49.484;11.242;2023-12-20T06:55:51;5.07;;;4.00;;
14125;SDS011;7141;49.484;11.242;2023-12-20T06:58:17;4.43;;;3.70;;
14125;SDS011;7141;49.484;11.242;2023-12-20T07:00:43;5.13;;;4.00;;
14125;SDS011;7141;49.484;11.242;2023-12-20T07:03:09;4.70;;;4.17;;
14125;SDS011;7141;49.484;11.242;2023-12-20T07:05:35;6.53;;;4.33;;
14125;SDS011;7141;49.484;11.242;2023-12-20T07:08:01;8.13;;;4.60;;
14125;SDS011;7141;49.484;11.242;2023-12-20T07:10:27;6.47;;;4.47;;
14125;SDS011;7141;49.484;11.242;2023-12-20T07:12:53;6.80;;;4.67;;
14125;SDS011;7141;49.484;11.242;2023-12-20T07:15:20;6.57;;;5.03;;
14125;SDS011;7141;49.484;11.242;2023-12-20T07:17:46;7.17;;;4.93;;
14125;SDS011;7141;49.484;11.242;2023-12-20T07:20:12;7.50;;;5.63;;
14125;SDS011;7141;49.484;11.242;2023-12-20T07:22:38;8.63;;;5.93;;
14125;SDS011;7141;49.484;11.242;2023-12-20T07:25:04;8.93;;;5.47;;
14125;SDS011;7141;49.484;11.242;2023-12-20T07:27:30;5.70;;;5.07;;
14125;SDS011;7141;49.484;11.242;2023-12-20T07:29:56;7.33;;;5.63;;
14125;SDS011;7141;49.484;11.242;2023-12-20T07:32:22;8.77;;;6.53;;
14125;SDS011;7141;49.484;11.242;2023-12-20T07:34:48;8.30;;;5.63;;
14125;SDS011;7141;49.484;11.242;2023-12-20T07:37:14;7.57;;;5.97;;
14125;SDS011;7141;49.484;11.242;2023-12-20T07:39:40;9.93;;;5.63;;
14125;SDS011;7141;49.484;11.242;2023-12-20T07:42:09;10.57;;;6.30;;
14125;SDS011;7141;49.484;11.242;2023-12-20T07:44:35;7.50;;;6.70;;
14125;SDS011;7141;49.484;11.242;2023-12-20T07:47:02;9.80;;;6.57;;
14125;SDS011;7141;49.484;11.242;2023-12-20T07:49:28;8.83;;;7.10;;
14125;SDS011;7141;49.484;11.242;2023-12-20T07:51:54;10.23;;;7.23;;
14125;SDS011;7141;49.484;11.242;2023-12-20T07:54:20;8.27;;;6.87;;
14125;SDS011;7141;49.484;11.242;2023-12-20T07:56:46;8.77;;;7.10;;
14125;SDS011;7141;49.484;11.242;2023-12-20T07:59:12;9.03;;;7.33;;
14125;SDS011;7141;49.484;11.242;2023-12-20T08:01:38;7.93;;;7.10;;
14125;SDS011;7141;49.484;11.242;2023-12-20T08:04:04;7.43;;;6.53;;
14125;SDS011;7141;49.484;11.242;2023-12-20T08:06:30;8.50;;;7.47;;
14125;SDS011;7141;49.484;11.242;2023-12-20T08:08:56;8.37;;;7.07;;
14125;SDS011;7141;49.484;11.242;2023-12-20T08:11:22;8.80;;;7.07;;
14125;SDS011;7141;49.484;11.242;2023-12-20T08:13:48;9.60;;;6.83;;
14125;SDS011;7141;49.484;11.242;2023-12-20T08:16:14;8.17;;;6.90;;
14125;SDS011;7141;49.484;11.242;2023-12-20T08:18:42;7.70;;;6.93;;
14125;SDS011;7141;49.484;11.242;2023-12-20T08:21:08;7.83;;;7.03;;
14125;SDS011;7141;49.484;11.242;2023-12-20T08:23:34;9.17;;;7.30;;
14125;SDS011;7141;49.484;11.242;2023-12-20T08:26:04;7.53;;;6.70;;
14125;SDS011;7141;49.484;11.242;2023-12-20T08:28:30;8.13;;;7.30;;
14125;SDS011;7141;49.484;11.242;2023-12-20T08:30:56;8.97;;;6.90;;
14125;SDS011;7141;49.484;11.242;2023-12-20T08:33:22;9.53;;;7.90;;
14125;SDS011;7141;49.484;11.242;2023-12-20T08:35:48;8.37;;;7.47;;
14125;SDS011;7141;49.484;11.242;2023-12-20T08:38:14;7.90;;;6.80;;
14125;SDS011;7141;49.484;11.242;2023-12-20T08:40:41;8.03;;;6.30;;
14125;SDS011;7141;49.484;11.242;2023-12-20T08:43:07;6.73;;;5.90;;
14125;SDS011;7141;49.484;11.242;2023-12-20T08:45:33;8.10;;;6.90;;
14125;SDS011;7141;49.484;11.242;2023-12-20T08:47:59;6.83;;;5.60;;
14125;SDS011;7141;49.484;11.242;2023-12-20T08:50:25;8.20;;;6.27;;
14125;SDS011;7141;49.484;11.242;2023-12-20T08:52:51;8.53;;;6.50;;
14125;SDS011;7141;49.484;11.242;2023-12-20T08:55:18;7.70;;;6.90;;
14125;SDS011;7141;49.484;11.242;2023-12-20T08:57:44;9.13;;;6.87;;
14125;SDS011;7141;49.484;11.242;2023-12-20T09:00:10;9.73;;;6.90;;
14125;SDS011;7141;49.484;11.242;2023-12-20T09:02:37;8.87;;;6.90;;
14125;SDS011;7141;49.484;11.242;2023-12-20T09:05:03;9.40;;;6.67;;
14125;SDS011;7141;49.484;11.242;2023-12-20T09:07:29;7.40;;;5.67;;
14125;SDS011;7141;49.484;11.242;2023-12-20T09:09:56;9.70;;;7.47;;
14125;SDS011;7141;49.484;11.242;2023-12-20T09:12:22;7.57;;;6.47;;
14125;SDS011;7141;49.484;11.242;2023-12-20T09:14:49;8.47;;;6.37;;
14125;SDS011;7141;49.484;11.242;2023-12-20T09:17:16;8.93;;;6.70;;
14125;SDS011;7141;49.484;11.242;2023-12-20T09:19:43;8.03;;;5.90;;
14125;SDS011;7141;49.484;11.242;2023-12-20T09:22:09;7.77;;;6.13;;
14125;SDS011;7141;49.484;11.242;2023-12-20T09:24:35;8.93;;;6.10;;
14125;SDS011;7141;49.484;11.242;2023-12-20T09:27:01;6.90;;;5.27;;
14125;SDS011;7141;49.484;11.242;2023-12-20T09:29:27;7.97;;;5.60;;
14125;SDS011;7141;49.484;11.242;2023-12-20T09:31:53;7.93;;;5.63;;
14125;SDS011;7141;49.484;11.242;2023-12-20T09:34:19;8.60;;;5.17;;
14125;SDS011;7141;49.484;11.242;2023-12-20T09:36:46;5.53;;;5.00;;
14125;SDS011;7141;49.484;11.242;2023-12-20T09:39:16;7.97;;;4.77;;
14125;SDS011;7141;49.484;11.242;2023-12-20T09:41:56;5.80;;;4.97;;
14125;SDS011;7141;49.484;11.242;2023-12-20T09:44:25;6.40;;;5.03;;
14125;SDS011;7141;49.484;11.242;2023-12-20T09:46:51;5.07;;;4.57;;
14125;SDS011;7141;49.484;11.242;2023-12-20T09:49:18;5.43;;;4.50;;
14125;SDS011;7141;49.484;11.242;2023-12-20T09:51:46;5.90;;;3.83;;
14125;SDS011;7141;49.484;11.242;2023-12-20T09:54:15;5.83;;;4.17;;
14125;SDS011;7141;49.484;11.242;2023-12-20T09:56:42;8.63;;;3.80;;
14125;SDS011;7141;49.484;11.242;2023-12-20T09:59:08;6.87;;;3.50;;
14125;SDS011;7141;49.484;11.242;2023-12-20T10:01:35;4.77;;;3.27;;
14125;SDS011;7141;49.484;11.242;2023-12-20T10:04:01;7.03;;;3.73;;
14125;SDS011;7141;49.484;11.242;2023-12-20T10:06:33;7.57;;;3.60;;
14125;SDS011;7141;49.484;11.242;2023-12-20T10:08:59;3.23;;;2.77;;
14125;SDS011;7141;49.484;11.242;2023-12-20T10:11:25;5.93;;;3.00;;
14125;SDS011;7141;49.484;11.242;2023-12-20T10:13:53;3.07;;;2.63;;
14125;SDS011;7141;49.484;11.242;2023-12-20T10:16:24;6.53;;;2.90;;
14125;SDS011;7141;49.484;11.242;2023-12-20T10:18:52;7.80;;;2.77;;
14125;SDS011;7141;49.484;11.242;2023-12-20T10:21:18;6.50;;;2.73;;
14125;SDS011;7141;49.484;11.242;2023-12-20T10:23:44;6.77;;;3.10;;
14125;SDS011;7141;49.484;11.242;2023-12-20T10:26:18;7.63;;;3.17;;
14125;SDS011;7141;49.484;11.242;2023-12-20T10:28:45;8.67;;;2.67;;
14125;SDS011;7141;49.484;11.242;2023-12-20T10:31:23;7.33;;;2.10;;
14125;SDS011;7141;49.484;11.242;2023-12-20T10:33:51;4.07;;;1.90;;
14125;SDS011;7141;49.484;11.242;2023-12-20T10:36:17;6.03;;;2.20;;
14125;SDS011;7141;49.484;11.242;2023-12-20T10:38:43;4.57;;;1.97;;
14125;SDS011;7141;49.484;11.242;2023-12-20T10:41:10;7.10;;;2.30;;
14125;SDS011;7141;49.484;11.242;2023-12-20T10:43:36;6.77;;;1.87;;
14125;SDS011;7141;49.484;11.242;2023-12-20T10:46:03;3.57;;;2.10;;
14125;SDS011;7141;49.484;11.242;2023-12-20T10:48:29;7.57;;;2.30;;
14125;SDS011;7141;49.484;11.242;2023-12-20T10:50:55;7.47;;;2.20;;
14125;SDS011;7141;49.484;11.242;2023-12-20T10:53:22;6.80;;;2.20;;
14125;SDS011;7141;49.484;11.242;2023-12-20T10:55:48;4.00;;;1.83;;
14125;SDS011;7141;49.484;11.242;2023-12-20T10:58:16;10.60;;;3.23;;
14125;SDS011;7141;49.484;11.242;2023-12-20T11:00:43;4.33;;;1.87;;
14125;SDS011;7141;49.484;11.242;2023-12-20T11:03:11;5.43;;;1.90;;
14125;SDS011;7141;49.484;11.242;2023-12-20T11:08:17;3.70;;;1.87;;
14125;SDS011;7141;49.484;11.242;2023-12-20T11:10:51;8.47;;;2.23;;
14125;SDS011;7141;49.484;11.242;2023-12-20T11:13:26;8.77;;;2.40;;
14125;SDS011;7141;49.484;11.242;2023-12-20T11:15:54;4.57;;;2.23;;
14125;SDS011;7141;49.484;11.242;2023-12-20T11:18:20;10.63;;;2.33;;
14125;SDS011;7141;49.484;11.242;2023-12-20T11:20:54;4.90;;;2.13;;
14125;SDS011;7141;49.484;11.242;2023-12-20T11:23:20;4.30;;;2.07;;
14125;SDS011;7141;49.484;11.242;2023-12-20T11:25:52;7.67;;;2.60;;
14125;SDS011;7141;49.484;11.242;2023-12-20T11:28:22;6.90;;;2.17;;
14125;SDS011;7141;49.484;11.242;2023-12-20T11:30:50;7.83;;;2.37;;
14125;SDS011;7141;49.484;11.242;2023-12-20T11:33:16;7.40;;;2.03;;
14125;SDS011;7141;49.484;11.242;2023-12-20T11:35:45;5.67;;;2.10;;
14125;SDS011;7141;49.484;11.242;2023-12-20T11:38:12;6.27;;;2.00;;
14125;SDS011;7141;49.484;11.242;2023-12-20T11:40:39;7.23;;;2.47;;
14125;SDS011;7141;49.484;11.242;2023-12-20T11:43:06;8.23;;;2.07;;
14125;SDS011;7141;49.484;11.242;2023-12-20T11:45:32;4.70;;;2.43;;
14125;SDS011;7141;49.484;11.242;2023-12-20T11:48:00;6.20;;;2.20;;
14125;SDS011;7141;49.484;11.242;2023-12-20T11:50:27;10.47;;;2.33;;
14125;SDS011;7141;49.484;11.242;2023-12-20T11:52:54;5.17;;;2.00;;
14125;SDS011;7141;49.484;11.242;2023-12-20T11:55:23;11.17;;;2.17;;
14125;SDS011;7141;49.484;11.242;2023-12-20T11:57:50;5.67;;;1.97;;
14125;SDS011;7141;49.484;11.242;2023-12-20T12:00:16;3.90;;;1.80;;
14125;SDS011;7141;49.484;11.242;2023-12-20T12:02:43;6.80;;;2.10;;
14125;SDS011;7141;49.484;11.242;2023-12-20T12:05:09;4.77;;;1.87;;
14125;SDS011;7141;49.484;11.242;2023-12-20T12:07:35;6.23;;;2.30;;
14125;SDS011;7141;49.484;11.242;2023-12-20T12:10:01;5.90;;;2.10;;
14125;SDS011;7141;49.484;11.242;2023-12-20T12:12:28;6.37;;;1.97;;
14125;SDS011;7141;49.484;11.242;2023-12-20T12:14:55;6.20;;;1.77;;
14125;SDS011;7141;49.484;11.242;2023-12-20T12:17:22;5.10;;;2.00;;
14125;SDS011;7141;49.484;11.242;2023-12-20T12:19:48;5.47;;;1.97;;
14125;SDS011;7141;49.484;11.242;2023-12-20T12:22:14;5.53;;;2.00;;
14125;SDS011;7141;49.484;11.242;2023-12-20T12:24:45;7.70;;;2.20;;
14125;SDS011;7141;49.484;11.242;2023-12-20T12:27:12;5.77;;;2.70;;
14125;SDS011;7141;49.484;11.242;2023-12-20T12:29:38;7.67;;;2.40;;
14125;SDS011;7141;49.484;11.242;2023-12-20T12:32:05;9.10;;;2.43;;
14125;SDS011;7141;49.484;11.242;2023-12-20T12:34:32;6.97;;;2.20;;
14125;SDS011;7141;49.484;11.242;2023-12-20T12:36:59;6.20;;;2.37;;
14125;SDS011;7141;49.484;11.242;2023-12-20T12:39:25;6.90;;;2.60;;
14125;SDS011;7141;49.484;11.242;2023-12-20T12:41:51;8.90;;;2.43;;
14125;SDS011;7141;49.484;11.242;2023-12-20T12:44:17;10.60;;;2.33;;
14125;SDS011;7141;49.484;11.242;2023-12-20T12:46:46;6.10;;;2.27;;
14125;SDS011;7141;49.484;11.242;2023-12-20T12:49:14;5.80;;;2.13;;
14125;SDS011;7141;49.484;11.242;2023-12-20T12:51:40;4.70;;;2.40;;
14125;SDS011;7141;49.484;11.242;2023-12-20T12:54:06;3.30;;;2.13;;
14125;SDS011;7141;49.484;11.242;2023-12-20T12:56:33;4.37;;;1.80;;
14125;SDS011;7141;49.484;11.242;2023-12-20T12:58:59;9.00;;;2.07;;
14125;SDS011;7141;49.484;11.242;2023-12-20T13:01:25;7.00;;;2.00;;
14125;SDS011;7141;49.484;11.242;2023-12-20T13:03:51;4.83;;;2.40;;
14125;SDS011;7141;49.484;11.242;2023-12-20T13:06:17;8.70;;;2.70;;
14125;SDS011;7141;49.484;11.242;2023-12-20T13:08:44;5.37;;;2.00;;
14125;SDS011;7141;49.484;11.242;2023-12-20T13:11:10;5.80;;;1.80;;
14125;SDS011;7141;49.484;11.242;2023-12-20T13:13:36;4.53;;;2.13;;
14125;SDS011;7141;49.484;11.242;2023-12-20T13:16:02;8.13;;;2.37;;
14125;SDS011;7141;49.484;11.242;2023-12-20T13:18:28;2.80;;;1.90;;
14125;SDS011;7141;49.484;11.242;2023-12-20T13:20:54;7.70;;;2.03;;
14125;SDS011;7141;49.484;11.242;2023-12-20T13:23:20;5.90;;;2.57;;
14125;SDS011;7141;49.484;11.242;2023-12-20T13:25:46;4.87;;;2.00;;
14125;SDS011;7141;49.484;11.242;2023-12-20T13:28:12;9.37;;;2.80;;
14125;SDS011;7141;49.484;11.242;2023-12-20T13:30:38;10.47;;;2.67;;
14125;SDS011;7141;49.484;11.242;2023-12-20T13:33:05;4.77;;;2.27;;
14125;SDS011;7141;49.484;11.242;2023-12-20T13:35:31;6.37;;;2.30;;
14125;SDS011;7141;49.484;11.242;2023-12-20T13:37:57;5.20;;;2.03;;
14125;SDS011;7141;49.484;11.242;2023-12-20T13:40:24;5.23;;;2.10;;
14125;SDS011;7141;49.484;11.242;2023-12-20T13:42:50;7.40;;;2.27;;
14125;SDS011;7141;49.484;11.242;2023-12-20T13:45:16;5.70;;;2.57;;
14125;SDS011;7141;49.484;11.242;2023-12-20T13:47:42;7.13;;;1.83;;
14125;SDS011;7141;49.484;11.242;2023-12-20T13:50:08;5.43;;;2.10;;
14125;SDS011;7141;49.484;11.242;2023-12-20T13:52:34;11.43;;;2.60;;
14125;SDS011;7141;49.484;11.242;2023-12-20T13:55:01;8.33;;;1.80;;
14125;SDS011;7141;49.484;11.242;2023-12-20T13:57:27;7.47;;;2.10;;
14125;SDS011;7141;49.484;11.242;2023-12-20T13:59:54;6.93;;;2.27;;
14125;SDS011;7141;49.484;11.242;2023-12-20T14:02:22;6.17;;;1.63;;
14125;SDS011;7141;49.484;11.242;2023-12-20T14:04:48;6.90;;;2.20;;
14125;SDS011;7141;49.484;11.242;2023-12-20T14:07:14;7.50;;;2.10;;
14125;SDS011;7141;49.484;11.242;2023-12-20T14:09:41;4.37;;;1.90;;
14125;SDS011;7141;49.484;11.242;2023-12-20T14:12:11;5.43;;;2.00;;
14125;SDS011;7141;49.484;11.242;2023-12-20T14:14:37;4.70;;;1.53;;
14125;SDS011;7141;49.484;11.242;2023-12-20T14:17:03;4.17;;;1.57;;
14125;SDS011;7141;49.484;11.242;2023-12-20T14:19:31;6.23;;;1.73;;
14125;SDS011;7141;49.484;11.242;2023-12-20T14:21:57;8.20;;;2.00;;
14125;SDS011;7141;49.484;11.242;2023-12-20T14:24:26;4.83;;;1.87;;
14125;SDS011;7141;49.484;11.242;2023-12-20T14:26:52;9.30;;;2.33;;
14125;SDS011;7141;49.484;11.242;2023-12-20T14:29:18;6.00;;;1.80;;
14125;SDS011;7141;49.484;11.242;2023-12-20T14:31:44;6.80;;;3.50;;
14125;SDS011;7141;49.484;11.242;2023-12-20T14:34:10;7.13;;;2.40;;
14125;SDS011;7141;49.484;11.242;2023-12-20T14:36:37;3.80;;;2.03;;
14125;SDS011;7141;49.484;11.242;2023-12-20T14:39:03;8.00;;;2.70;;
14125;SDS011;7141;49.484;11.242;2023-12-20T14:41:29;5.37;;;2.00;;
14125;SDS011;7141;49.484;11.242;2023-12-20T14:43:55;21.77;;;15.37;;
14125;SDS011;7141;49.484;11.242;2023-12-20T14:46:21;10.43;;;4.60;;